sensor_id;sensor_type;location;lat;lon;timestamp;temperature;humidity
30825;DHT22;17550;45.486;12.222;2023-04-03T00:00:06;12.20;99.90
30825;DHT22;17550;45.486;12.222;2023-04-03T00:02:32;12.20;99.90
30825;DHT22;17550;45.486;12.222;2023-04-03T00:04:58;12.20;99.90
30825;DHT22;17550;45.486;12.222;2023-04-03T00:07:24;12.20;99.90
30825;DHT22;17550;45.486;12.222;2023-04-03T00:09:51;12.20;99.90
30825;DHT22;17550;45.486;12.222;2023-04-03T00:12:16;12.20;99.90
30825;DHT22;17550;45.486;12.222;2023-04-03T00:14:42;12.30;99.90
30825;DHT22;17550;45.486;12.222;2023-04-03T00:17:08;12.30;99.90
30825;DHT22;17550;45.486;12.222;2023-04-03T00:19:33;12.20;99.90
30825;DHT22;17550;45.486;12.222;2023-04-03T00:21:59;12.10;99.90
30825;DHT22;17550;45.486;12.222;2023-04-03T00:24:25;12.00;99.90
30825;DHT22;17550;45.486;12.222;2023-04-03T00:26:50;12.00;99.90
30825;DHT22;17550;45.486;12.222;2023-04-03T00:29:16;12.00;99.90
30825;DHT22;17550;45.486;12.222;2023-04-03T00:31:42;11.90;99.90
30825;DHT22;17550;45.486;12.222;2023-04-03T00:34:07;11.80;99.90
30825;DHT22;17550;45.486;12.222;2023-04-03T00:36:33;11.70;99.90
30825;DHT22;17550;45.486;12.222;2023-04-03T00:38:59;11.60;99.90
30825;DHT22;17550;45.486;12.222;2023-04-03T00:41:24;11.50;99.90
30825;DHT22;17550;45.486;12.222;2023-04-03T00:43:50;11.30;99.90
30825;DHT22;17550;45.486;12.222;2023-04-03T00:46:16;11.20;99.90
30825;DHT22;17550;45.486;12.222;2023-04-03T00:48:46;11.20;99.90
30825;DHT22;17550;45.486;12.222;2023-04-03T00:51:24;11.20;99.90
30825;DHT22;17550;45.486;12.222;2023-04-03T00:53:55;11.10;99.90
30825;DHT22;17550;45.486;12.222;2023-04-03T00:56:25;11.10;99.90
30825;DHT22;17550;45.486;12.222;2023-04-03T01:01:27;11.20;99.90
30825;DHT22;17550;45.486;12.222;2023-04-03T01:03:53;11.20;99.90
30825;DHT22;17550;45.486;12.222;2023-04-03T01:06:23;11.20;99.90
30825;DHT22;17550;45.486;12.222;2023-04-03T01:08:51;11.30;99.90
30825;DHT22;17550;45.486;12.222;2023-04-03T01:11:17;11.30;99.90
30825;DHT22;17550;45.486;12.222;2023-04-03T01:13:43;11.30;99.90
30825;DHT22;17550;45.486;12.222;2023-04-03T01:16:09;11.30;99.90
30825;DHT22;17550;45.486;12.222;2023-04-03T01:18:38;11.40;99.90
30825;DHT22;17550;45.486;12.222;2023-04-03T01:24:30;11.50;99.90
30825;DHT22;17550;45.486;12.222;2023-04-03T01:26:57;11.60;99.90
30825;DHT22;17550;45.486;12.222;2023-04-03T01:29:23;11.60;99.90
30825;DHT22;17550;45.486;12.222;2023-04-03T01:31:54;11.60;99.90
30825;DHT22;17550;45.486;12.222;2023-04-03T01:34:20;11.60;99.90
30825;DHT22;17550;45.486;12.222;2023-04-03T01:36:46;11.60;99.90
30825;DHT22;17550;45.486;12.222;2023-04-03T01:39:12;11.60;99.90
30825;DHT22;17550;45.486;12.222;2023-04-03T01:41:38;11.70;99.90
30825;DHT22;17550;45.486;12.222;2023-04-03T01:44:04;11.70;99.90
30825;DHT22;17550;45.486;12.222;2023-04-03T01:46:30;11.70;99.90
30825;DHT22;17550;45.486;12.222;2023-04-03T01:48:56;11.60;99.90
30825;DHT22;17550;45.486;12.222;2023-04-03T01:51:21;11.60;99.90
30825;DHT22;17550;45.486;12.222;2023-04-03T01:53:47;11.60;99.90
30825;DHT22;17550;45.486;12.222;2023-04-03T01:56:13;11.50;99.90
30825;DHT22;17550;45.486;12.222;2023-04-03T01:58:39;11.60;99.90
30825;DHT22;17550;45.486;12.222;2023-04-03T02:01:04;11.50;99.90
30825;DHT22;17550;45.486;12.222;2023-04-03T02:03:31;11.50;99.90
30825;DHT22;17550;45.486;12.222;2023-04-03T02:05:57;11.50;99.90
30825;DHT22;17550;45.486;12.222;2023-04-03T02:08:23;11.50;99.90
30825;DHT22;17550;45.486;12.222;2023-04-03T02:10:50;11.40;99.90
30825;DHT22;17550;45.486;12.222;2023-04-03T02:13:17;11.40;99.90
30825;DHT22;17550;45.486;12.222;2023-04-03T02:15:43;11.40;99.90
30825;DHT22;17550;45.486;12.222;2023-04-03T02:18:09;11.40;99.90
30825;DHT22;17550;45.486;12.222;2023-04-03T02:20:35;11.40;99.90
30825;DHT22;17550;45.486;12.222;2023-04-03T02:23:01;11.40;99.90
30825;DHT22;17550;45.486;12.222;2023-04-03T02:25:27;11.40;99.90
30825;DHT22;17550;45.486;12.222;2023-04-03T02:27:52;11.30;99.90
30825;DHT22;17550;45.486;12.222;2023-04-03T02:30:18;11.30;99.90
30825;DHT22;17550;45.486;12.222;2023-04-03T02:32:44;11.30;99.90
30825;DHT22;17550;45.486;12.222;2023-04-03T02:35:11;11.20;99.90
30825;DHT22;17550;45.486;12.222;2023-04-03T02:37:37;11.20;99.90
30825;DHT22;17550;45.486;12.222;2023-04-03T02:40:03;11.20;99.90
30825;DHT22;17550;45.486;12.222;2023-04-03T02:42:30;11.20;99.90
30825;DHT22;17550;45.486;12.222;2023-04-03T02:44:56;11.20;99.90
30825;DHT22;17550;45.486;12.222;2023-04-03T02:47:21;11.20;99.90
30825;DHT22;17550;45.486;12.222;2023-04-03T02:49:47;11.20;99.90
30825;DHT22;17550;45.486;12.222;2023-04-03T02:52:14;11.20;99.90
30825;DHT22;17550;45.486;12.222;2023-04-03T02:54:39;11.20;99.90
30825;DHT22;17550;45.486;12.222;2023-04-03T02:57:06;11.20;99.90
30825;DHT22;17550;45.486;12.222;2023-04-03T02:59:35;11.10;99.90
30825;DHT22;17550;45.486;12.222;2023-04-03T03:02:00;11.10;99.90
30825;DHT22;17550;45.486;12.222;2023-04-03T03:04:26;11.10;99.90
30825;DHT22;17550;45.486;12.222;2023-04-03T03:06:52;11.10;99.90
30825;DHT22;17550;45.486;12.222;2023-04-03T03:09:18;11.00;99.90
30825;DHT22;17550;45.486;12.222;2023-04-03T03:11:44;11.00;99.90
30825;DHT22;17550;45.486;12.222;2023-04-03T03:14:09;11.00;99.90
30825;DHT22;17550;45.486;12.222;2023-04-03T03:16:35;11.00;99.90
30825;DHT22;17550;45.486;12.222;2023-04-03T03:19:01;11.00;99.90
30825;DHT22;17550;45.486;12.222;2023-04-03T03:21:27;11.10;99.90
30825;DHT22;17550;45.486;12.222;2023-04-03T03:23:52;11.00;99.90
30825;DHT22;17550;45.486;12.222;2023-04-03T03:26:18;11.00;99.90
30825;DHT22;17550;45.486;12.222;2023-04-03T03:28:44;11.00;99.90
30825;DHT22;17550;45.486;12.222;2023-04-03T03:31:10;11.10;99.90
30825;DHT22;17550;45.486;12.222;2023-04-03T03:33:36;11.10;99.90
30825;DHT22;17550;45.486;12.222;2023-04-03T03:36:02;11.10;99.90
30825;DHT22;17550;45.486;12.222;2023-04-03T03:38:27;11.10;99.90
30825;DHT22;17550;45.486;12.222;2023-04-03T03:40:53;11.10;99.90
30825;DHT22;17550;45.486;12.222;2023-04-03T03:43:19;11.00;99.90
30825;DHT22;17550;45.486;12.222;2023-04-03T03:45:50;11.00;99.90
30825;DHT22;17550;45.486;12.222;2023-04-03T03:48:16;11.00;99.90
30825;DHT22;17550;45.486;12.222;2023-04-03T03:50:42;10.90;99.90
30825;DHT22;17550;45.486;12.222;2023-04-03T03:53:08;10.90;99.90
30825;DHT22;17550;45.486;12.222;2023-04-03T03:55:33;10.80;99.90
30825;DHT22;17550;45.486;12.222;2023-04-03T03:57:59;10.90;99.90
30825;DHT22;17550;45.486;12.222;2023-04-03T04:00:27;10.80;99.90
30825;DHT22;17550;45.486;12.222;2023-04-03T04:02:52;10.80;99.90
30825;DHT22;17550;45.486;12.222;2023-04-03T04:05:18;10.80;99.90
30825;DHT22;17550;45.486;12.222;2023-04-03T04:07:44;10.70;99.90
30825;DHT22;17550;45.486;12.222;2023-04-03T04:10:09;10.60;99.90
30825;DHT22;17550;45.486;12.222;2023-04-03T04:12:35;10.60;99.90
30825;DHT22;17550;45.486;12.222;2023-04-03T04:15:01;10.60;99.90
30825;DHT22;17550;45.486;12.222;2023-04-03T04:17:27;10.50;99.90
30825;DHT22;17550;45.486;12.222;2023-04-03T04:19:53;10.50;99.90
30825;DHT22;17550;45.486;12.222;2023-04-03T04:22:19;10.50;99.90
30825;DHT22;17550;45.486;12.222;2023-04-03T04:24:44;10.50;99.90
30825;DHT22;17550;45.486;12.222;2023-04-03T04:27:10;10.50;99.90
30825;DHT22;17550;45.486;12.222;2023-04-03T04:29:36;10.50;99.90
30825;DHT22;17550;45.486;12.222;2023-04-03T04:32:05;10.50;99.90
30825;DHT22;17550;45.486;12.222;2023-04-03T04:34:31;10.60;99.90
30825;DHT22;17550;45.486;12.222;2023-04-03T04:36:57;10.50;99.90
30825;DHT22;17550;45.486;12.222;2023-04-03T04:39:22;10.50;99.90
30825;DHT22;17550;45.486;12.222;2023-04-03T04:41:48;10.50;99.90
30825;DHT22;17550;45.486;12.222;2023-04-03T04:44:14;10.50;99.90
30825;DHT22;17550;45.486;12.222;2023-04-03T04:46:40;10.50;99.90
30825;DHT22;17550;45.486;12.222;2023-04-03T04:49:06;10.50;99.90
30825;DHT22;17550;45.486;12.222;2023-04-03T04:51:32;10.50;99.90
30825;DHT22;17550;45.486;12.222;2023-04-03T04:53:57;10.60;99.90
30825;DHT22;17550;45.486;12.222;2023-04-03T04:56:23;10.60;99.90
30825;DHT22;17550;45.486;12.222;2023-04-03T04:58:49;10.60;99.90
30825;DHT22;17550;45.486;12.222;2023-04-03T05:01:14;10.60;99.90
30825;DHT22;17550;45.486;12.222;2023-04-03T05:03:40;10.60;99.90
30825;DHT22;17550;45.486;12.222;2023-04-03T05:06:06;10.60;99.90
30825;DHT22;17550;45.486;12.222;2023-04-03T05:08:32;10.60;99.90
30825;DHT22;17550;45.486;12.222;2023-04-03T05:10:58;10.70;99.90
30825;DHT22;17550;45.486;12.222;2023-04-03T05:13:23;10.80;99.90
30825;DHT22;17550;45.486;12.222;2023-04-03T05:15:49;11.00;99.90
30825;DHT22;17550;45.486;12.222;2023-04-03T05:18:15;11.10;99.90
30825;DHT22;17550;45.486;12.222;2023-04-03T05:20:41;11.30;99.90
30825;DHT22;17550;45.486;12.222;2023-04-03T05:23:09;11.50;99.90
30825;DHT22;17550;45.486;12.222;2023-04-03T05:25:37;12.00;99.90
30825;DHT22;17550;45.486;12.222;2023-04-03T05:28:03;12.60;99.90
30825;DHT22;17550;45.486;12.222;2023-04-03T05:30:29;13.10;99.90
30825;DHT22;17550;45.486;12.222;2023-04-03T05:32:54;13.60;99.90
30825;DHT22;17550;45.486;12.222;2023-04-03T05:35:21;14.20;99.90
30825;DHT22;17550;45.486;12.222;2023-04-03T05:37:46;14.40;99.90
30825;DHT22;17550;45.486;12.222;2023-04-03T05:40:12;14.50;99.90
30825;DHT22;17550;45.486;12.222;2023-04-03T05:42:39;14.80;99.90
30825;DHT22;17550;45.486;12.222;2023-04-03T05:45:05;15.30;99.90
30825;DHT22;17550;45.486;12.222;2023-04-03T05:47:31;15.50;99.90
30825;DHT22;17550;45.486;12.222;2023-04-03T05:49:57;15.20;99.90
30825;DHT22;17550;45.486;12.222;2023-04-03T05:52:28;14.70;99.90
30825;DHT22;17550;45.486;12.222;2023-04-03T05:54:54;14.30;99.90
30825;DHT22;17550;45.486;12.222;2023-04-03T05:57:20;14.00;99.90
30825;DHT22;17550;45.486;12.222;2023-04-03T05:59:46;13.70;99.90
30825;DHT22;17550;45.486;12.222;2023-04-03T06:02:15;13.30;99.90
30825;DHT22;17550;45.486;12.222;2023-04-03T06:04:41;13.10;99.90
30825;DHT22;17550;45.486;12.222;2023-04-03T06:07:19;12.90;99.90
30825;DHT22;17550;45.486;12.222;2023-04-03T06:09:48;12.70;99.90
30825;DHT22;17550;45.486;12.222;2023-04-03T06:12:14;12.60;99.90
30825;DHT22;17550;45.486;12.222;2023-04-03T06:14:40;12.60;99.90
30825;DHT22;17550;45.486;12.222;2023-04-03T06:17:07;12.50;99.90
30825;DHT22;17550;45.486;12.222;2023-04-03T06:19:34;12.60;99.90
30825;DHT22;17550;45.486;12.222;2023-04-03T06:22:00;12.70;99.90
30825;DHT22;17550;45.486;12.222;2023-04-03T06:24:26;12.60;99.90
30825;DHT22;17550;45.486;12.222;2023-04-03T06:26:52;12.60;99.90
30825;DHT22;17550;45.486;12.222;2023-04-03T06:29:19;12.60;99.90
30825;DHT22;17550;45.486;12.222;2023-04-03T06:31:45;12.60;99.90
30825;DHT22;17550;45.486;12.222;2023-04-03T06:34:11;12.60;99.90
30825;DHT22;17550;45.486;12.222;2023-04-03T06:36:38;12.60;99.90
30825;DHT22;17550;45.486;12.222;2023-04-03T06:39:04;12.50;99.90
30825;DHT22;17550;45.486;12.222;2023-04-03T06:41:31;12.50;99.90
30825;DHT22;17550;45.486;12.222;2023-04-03T06:43:56;12.60;99.90
30825;DHT22;17550;45.486;12.222;2023-04-03T06:46:24;12.60;99.90
30825;DHT22;17550;45.486;12.222;2023-04-03T06:48:51;12.60;99.90
30825;DHT22;17550;45.486;12.222;2023-04-03T06:51:24;12.70;99.90
30825;DHT22;17550;45.486;12.222;2023-04-03T06:53:52;12.70;99.90
30825;DHT22;17550;45.486;12.222;2023-04-03T06:56:19;12.60;99.90
30825;DHT22;17550;45.486;12.222;2023-04-03T06:58:45;12.60;99.90
30825;DHT22;17550;45.486;12.222;2023-04-03T07:01:13;12.60;99.90
30825;DHT22;17550;45.486;12.222;2023-04-03T07:03:39;12.60;99.90
30825;DHT22;17550;45.486;12.222;2023-04-03T07:06:06;12.70;99.90
30825;DHT22;17550;45.486;12.222;2023-04-03T07:08:32;12.60;99.90
30825;DHT22;17550;45.486;12.222;2023-04-03T07:10:58;12.70;99.90
30825;DHT22;17550;45.486;12.222;2023-04-03T07:13:25;12.80;99.90
30825;DHT22;17550;45.486;12.222;2023-04-03T07:15:50;12.70;99.90
30825;DHT22;17550;45.486;12.222;2023-04-03T07:18:16;12.80;99.90
30825;DHT22;17550;45.486;12.222;2023-04-03T07:20:45;12.60;99.30
30825;DHT22;17550;45.486;12.222;2023-04-03T07:23:11;12.60;99.40
30825;DHT22;17550;45.486;12.222;2023-04-03T07:25:41;12.70;99.70
30825;DHT22;17550;45.486;12.222;2023-04-03T07:28:07;12.60;99.20
30825;DHT22;17550;45.486;12.222;2023-04-03T07:30:33;12.70;99.40
30825;DHT22;17550;45.486;12.222;2023-04-03T07:32:59;12.90;98.90
30825;DHT22;17550;45.486;12.222;2023-04-03T07:35:24;13.00;98.40
30825;DHT22;17550;45.486;12.222;2023-04-03T07:37:51;12.90;98.10
30825;DHT22;17550;45.486;12.222;2023-04-03T07:40:16;13.00;98.30
30825;DHT22;17550;45.486;12.222;2023-04-03T07:42:42;13.10;98.70
30825;DHT22;17550;45.486;12.222;2023-04-03T07:45:08;12.90;97.90
30825;DHT22;17550;45.486;12.222;2023-04-03T07:47:34;12.90;98.70
30825;DHT22;17550;45.486;12.222;2023-04-03T07:50:00;13.10;98.10
30825;DHT22;17550;45.486;12.222;2023-04-03T07:52:26;13.00;98.10
30825;DHT22;17550;45.486;12.222;2023-04-03T07:54:51;13.00;97.70
30825;DHT22;17550;45.486;12.222;2023-04-03T07:57:17;12.90;98.10
30825;DHT22;17550;45.486;12.222;2023-04-03T07:59:43;12.90;98.20
30825;DHT22;17550;45.486;12.222;2023-04-03T08:02:12;12.90;97.90
30825;DHT22;17550;45.486;12.222;2023-04-03T08:04:38;12.90;97.50
30825;DHT22;17550;45.486;12.222;2023-04-03T08:07:05;12.80;98.00
30825;DHT22;17550;45.486;12.222;2023-04-03T08:09:31;12.90;97.90
30825;DHT22;17550;45.486;12.222;2023-04-03T08:11:57;12.90;97.90
30825;DHT22;17550;45.486;12.222;2023-04-03T08:14:23;13.00;97.50
30825;DHT22;17550;45.486;12.222;2023-04-03T08:16:49;13.20;97.20
30825;DHT22;17550;45.486;12.222;2023-04-03T08:19:15;13.10;97.10
30825;DHT22;17550;45.486;12.222;2023-04-03T08:21:44;13.00;97.10
30825;DHT22;17550;45.486;12.222;2023-04-03T08:24:10;13.20;97.50
30825;DHT22;17550;45.486;12.222;2023-04-03T08:26:36;13.10;97.30
30825;DHT22;17550;45.486;12.222;2023-04-03T08:29:02;13.30;97.30
30825;DHT22;17550;45.486;12.222;2023-04-03T08:31:28;13.60;96.70
30825;DHT22;17550;45.486;12.222;2023-04-03T08:33:53;13.50;96.70
30825;DHT22;17550;45.486;12.222;2023-04-03T08:36:22;13.50;96.10
30825;DHT22;17550;45.486;12.222;2023-04-03T08:38:49;13.50;96.70
30825;DHT22;17550;45.486;12.222;2023-04-03T08:41:35;13.60;95.80
30825;DHT22;17550;45.486;12.222;2023-04-03T08:49:48;13.50;95.50
30825;DHT22;17550;45.486;12.222;2023-04-03T08:52:30;13.40;95.50
30825;DHT22;17550;45.486;12.222;2023-04-03T08:54:59;13.50;95.60
30825;DHT22;17550;45.486;12.222;2023-04-03T08:57:39;13.70;96.10
30825;DHT22;17550;45.486;12.222;2023-04-03T09:02:45;14.30;94.60
30825;DHT22;17550;45.486;12.222;2023-04-03T09:05:17;14.20;93.80
30825;DHT22;17550;45.486;12.222;2023-04-03T09:10:39;14.80;94.20
30825;DHT22;17550;45.486;12.222;2023-04-03T09:13:33;14.50;93.00
30825;DHT22;17550;45.486;12.222;2023-04-03T09:16:04;14.20;92.90
30825;DHT22;17550;45.486;12.222;2023-04-03T09:18:44;14.00;93.10
30825;DHT22;17550;45.486;12.222;2023-04-03T09:21:23;13.80;93.60
30825;DHT22;17550;45.486;12.222;2023-04-03T09:23:52;13.90;93.90
30825;DHT22;17550;45.486;12.222;2023-04-03T09:28:56;14.60;93.80
30825;DHT22;17550;45.486;12.222;2023-04-03T09:31:27;14.80;93.20
30825;DHT22;17550;45.486;12.222;2023-04-03T09:33:59;14.80;92.40
30825;DHT22;17550;45.486;12.222;2023-04-03T09:36:55;14.80;92.90
30825;DHT22;17550;45.486;12.222;2023-04-03T09:39:27;14.60;92.40
30825;DHT22;17550;45.486;12.222;2023-04-03T09:42:05;14.70;92.00
30825;DHT22;17550;45.486;12.222;2023-04-03T09:44:37;14.60;92.00
30825;DHT22;17550;45.486;12.222;2023-04-03T09:47:27;14.20;91.80
30825;DHT22;17550;45.486;12.222;2023-04-03T09:50:28;14.00;92.90
30825;DHT22;17550;45.486;12.222;2023-04-03T09:52:54;14.00;92.60
30825;DHT22;17550;45.486;12.222;2023-04-03T09:55:25;14.20;92.30
30825;DHT22;17550;45.486;12.222;2023-04-03T09:57:59;14.00;92.20
30825;DHT22;17550;45.486;12.222;2023-04-03T10:00:27;14.00;92.50
30825;DHT22;17550;45.486;12.222;2023-04-03T10:02:55;14.10;92.10
30825;DHT22;17550;45.486;12.222;2023-04-03T10:05:37;14.10;92.00
30825;DHT22;17550;45.486;12.222;2023-04-03T10:10:38;14.20;91.50
30825;DHT22;17550;45.486;12.222;2023-04-03T10:13:22;13.90;91.90
30825;DHT22;17550;45.486;12.222;2023-04-03T10:16:07;13.90;91.90
30825;DHT22;17550;45.486;12.222;2023-04-03T10:22:34;14.00;92.10
30825;DHT22;17550;45.486;12.222;2023-04-03T10:24:51;14.20;91.50
30825;DHT22;17550;45.486;12.222;2023-04-03T10:27:42;14.40;91.70
30825;DHT22;17550;45.486;12.222;2023-04-03T10:30:17;14.60;91.40
30825;DHT22;17550;45.486;12.222;2023-04-03T10:32:52;14.80;91.10
30825;DHT22;17550;45.486;12.222;2023-04-03T10:40:32;14.60;90.60
30825;DHT22;17550;45.486;12.222;2023-04-03T10:45:49;15.00;91.00
30825;DHT22;17550;45.486;12.222;2023-04-03T10:58:56;15.30;89.40
30825;DHT22;17550;45.486;12.222;2023-04-03T11:01:29;15.30;89.90
30825;DHT22;17550;45.486;12.222;2023-04-03T11:03:58;15.20;89.40
30825;DHT22;17550;45.486;12.222;2023-04-03T11:06:47;15.00;89.90
30825;DHT22;17550;45.486;12.222;2023-04-03T11:09:30;15.00;90.40
30825;DHT22;17550;45.486;12.222;2023-04-03T11:12:15;15.50;90.00
30825;DHT22;17550;45.486;12.222;2023-04-03T11:14:42;15.70;88.00
30825;DHT22;17550;45.486;12.222;2023-04-03T11:20:15;15.50;88.40
30825;DHT22;17550;45.486;12.222;2023-04-03T11:22:45;15.60;90.10
30825;DHT22;17550;45.486;12.222;2023-04-03T11:27:45;15.60;87.50
30825;DHT22;17550;45.486;12.222;2023-04-03T11:35:52;15.60;84.60
30825;DHT22;17550;45.486;12.222;2023-04-03T11:38:42;15.50;87.40
30825;DHT22;17550;45.486;12.222;2023-04-03T11:41:09;15.90;85.80
30825;DHT22;17550;45.486;12.222;2023-04-03T11:44:05;16.10;85.80
30825;DHT22;17550;45.486;12.222;2023-04-03T11:46:57;15.90;84.90
30825;DHT22;17550;45.486;12.222;2023-04-03T12:00:53;15.20;86.10
30825;DHT22;17550;45.486;12.222;2023-04-03T12:05:51;15.30;84.40
30825;DHT22;17550;45.486;12.222;2023-04-03T12:08:43;15.40;84.70
30825;DHT22;17550;45.486;12.222;2023-04-03T12:13:38;15.50;85.40
30825;DHT22;17550;45.486;12.222;2023-04-03T12:21:24;16.00;82.70
30825;DHT22;17550;45.486;12.222;2023-04-03T12:40:26;16.70;81.10
30825;DHT22;17550;45.486;12.222;2023-04-03T12:45:41;16.00;79.50
30825;DHT22;17550;45.486;12.222;2023-04-03T12:48:24;16.00;79.80
30825;DHT22;17550;45.486;12.222;2023-04-03T12:50:50;16.10;80.30
30825;DHT22;17550;45.486;12.222;2023-04-03T12:53:23;16.20;79.20
30825;DHT22;17550;45.486;12.222;2023-04-03T12:55:57;16.30;79.70
30825;DHT22;17550;45.486;12.222;2023-04-03T12:58:43;16.20;78.40
30825;DHT22;17550;45.486;12.222;2023-04-03T13:01:17;15.70;79.10
30825;DHT22;17550;45.486;12.222;2023-04-03T13:03:54;15.70;78.90
30825;DHT22;17550;45.486;12.222;2023-04-03T13:06:26;15.80;77.80
30825;DHT22;17550;45.486;12.222;2023-04-03T13:08:53;15.90;78.70
30825;DHT22;17550;45.486;12.222;2023-04-03T13:11:21;16.00;79.50
30825;DHT22;17550;45.486;12.222;2023-04-03T13:13:55;16.30;77.20
30825;DHT22;17550;45.486;12.222;2023-04-03T13:16:21;16.10;78.80
30825;DHT22;17550;45.486;12.222;2023-04-03T13:18:55;16.30;77.50
30825;DHT22;17550;45.486;12.222;2023-04-03T13:21:26;16.20;76.60
30825;DHT22;17550;45.486;12.222;2023-04-03T13:23:57;15.90;77.30
30825;DHT22;17550;45.486;12.222;2023-04-03T13:26:26;15.80;77.40
30825;DHT22;17550;45.486;12.222;2023-04-03T13:28:54;16.10;78.20
30825;DHT22;17550;45.486;12.222;2023-04-03T13:31:34;16.30;78.50
30825;DHT22;17550;45.486;12.222;2023-04-03T13:34:12;16.60;77.70
30825;DHT22;17550;45.486;12.222;2023-04-03T13:36:40;16.50;76.00
30825;DHT22;17550;45.486;12.222;2023-04-03T13:41:41;16.30;76.80
30825;DHT22;17550;45.486;12.222;2023-04-03T13:47:00;16.30;76.90
30825;DHT22;17550;45.486;12.222;2023-04-03T13:49:33;16.20;76.50
30825;DHT22;17550;45.486;12.222;2023-04-03T13:52:01;16.20;77.30
30825;DHT22;17550;45.486;12.222;2023-04-03T13:54:31;16.20;76.60
30825;DHT22;17550;45.486;12.222;2023-04-03T13:57:00;16.20;76.10
30825;DHT22;17550;45.486;12.222;2023-04-03T13:59:35;16.10;76.80
30825;DHT22;17550;45.486;12.222;2023-04-03T14:04:32;16.30;75.80
30825;DHT22;17550;45.486;12.222;2023-04-03T14:06:59;16.30;76.30
30825;DHT22;17550;45.486;12.222;2023-04-03T14:09:27;16.10;74.90
30825;DHT22;17550;45.486;12.222;2023-04-03T14:11:59;16.00;76.50
30825;DHT22;17550;45.486;12.222;2023-04-03T14:14:31;16.20;77.20
30825;DHT22;17550;45.486;12.222;2023-04-03T14:17:00;16.30;76.00
30825;DHT22;17550;45.486;12.222;2023-04-03T14:21:55;16.50;74.90
30825;DHT22;17550;45.486;12.222;2023-04-03T14:24:22;16.50;75.70
30825;DHT22;17550;45.486;12.222;2023-04-03T14:26:49;16.50;74.00
30825;DHT22;17550;45.486;12.222;2023-04-03T14:29:16;16.40;74.10
30825;DHT22;17550;45.486;12.222;2023-04-03T14:31:46;16.00;74.60
30825;DHT22;17550;45.486;12.222;2023-04-03T14:34:13;16.00;75.50
30825;DHT22;17550;45.486;12.222;2023-04-03T14:36:41;16.10;76.50
30825;DHT22;17550;45.486;12.222;2023-04-03T14:39:11;16.00;74.90
30825;DHT22;17550;45.486;12.222;2023-04-03T14:41:41;15.90;74.70
30825;DHT22;17550;45.486;12.222;2023-04-03T14:44:07;15.90;74.10
30825;DHT22;17550;45.486;12.222;2023-04-03T14:46:36;15.90;73.10
30825;DHT22;17550;45.486;12.222;2023-04-03T14:49:05;15.70;72.60
30825;DHT22;17550;45.486;12.222;2023-04-03T14:51:33;15.60;73.10
30825;DHT22;17550;45.486;12.222;2023-04-03T14:53:59;15.60;72.90
30825;DHT22;17550;45.486;12.222;2023-04-03T14:56:28;15.50;73.30
30825;DHT22;17550;45.486;12.222;2023-04-03T14:58:59;15.50;73.80
30825;DHT22;17550;45.486;12.222;2023-04-03T15:01:27;15.40;73.30
30825;DHT22;17550;45.486;12.222;2023-04-03T15:03:53;15.40;73.50
30825;DHT22;17550;45.486;12.222;2023-04-03T15:06:19;15.30;71.90
30825;DHT22;17550;45.486;12.222;2023-04-03T15:08:46;15.20;73.80
30825;DHT22;17550;45.486;12.222;2023-04-03T15:11:12;15.40;73.30
30825;DHT22;17550;45.486;12.222;2023-04-03T15:13:39;15.40;73.90
30825;DHT22;17550;45.486;12.222;2023-04-03T15:16:25;15.40;72.50
30825;DHT22;17550;45.486;12.222;2023-04-03T15:18:52;15.40;73.60
30825;DHT22;17550;45.486;12.222;2023-04-03T15:21:17;15.20;71.80
30825;DHT22;17550;45.486;12.222;2023-04-03T15:23:43;15.10;72.30
30825;DHT22;17550;45.486;12.222;2023-04-03T15:26:09;15.00;73.20
30825;DHT22;17550;45.486;12.222;2023-04-03T15:28:37;15.00;72.60
30825;DHT22;17550;45.486;12.222;2023-04-03T15:31:03;15.00;72.30
30825;DHT22;17550;45.486;12.222;2023-04-03T15:33:30;15.00;73.20
30825;DHT22;17550;45.486;12.222;2023-04-03T15:35:56;15.10;74.10
30825;DHT22;17550;45.486;12.222;2023-04-03T15:38:22;15.10;72.60
30825;DHT22;17550;45.486;12.222;2023-04-03T15:40:48;15.10;73.30
30825;DHT22;17550;45.486;12.222;2023-04-03T15:43:14;15.20;72.20
30825;DHT22;17550;45.486;12.222;2023-04-03T15:45:41;15.30;71.50
30825;DHT22;17550;45.486;12.222;2023-04-03T15:48:07;15.00;72.80
30825;DHT22;17550;45.486;12.222;2023-04-03T15:50:34;15.10;73.90
30825;DHT22;17550;45.486;12.222;2023-04-03T15:53:00;15.00;73.50
30825;DHT22;17550;45.486;12.222;2023-04-03T15:55:29;15.10;74.40
30825;DHT22;17550;45.486;12.222;2023-04-03T15:57:55;15.20;72.90
30825;DHT22;17550;45.486;12.222;2023-04-03T16:00:22;15.00;72.50
30825;DHT22;17550;45.486;12.222;2023-04-03T16:02:51;14.90;71.70
30825;DHT22;17550;45.486;12.222;2023-04-03T16:05:18;14.80;72.20
30825;DHT22;17550;45.486;12.222;2023-04-03T16:07:45;14.70;72.40
30825;DHT22;17550;45.486;12.222;2023-04-03T16:10:12;14.60;72.80
30825;DHT22;17550;45.486;12.222;2023-04-03T16:12:38;14.70;72.20
30825;DHT22;17550;45.486;12.222;2023-04-03T16:15:04;14.60;73.40
30825;DHT22;17550;45.486;12.222;2023-04-03T16:17:32;14.60;71.90
30825;DHT22;17550;45.486;12.222;2023-04-03T16:19:58;14.40;71.30
30825;DHT22;17550;45.486;12.222;2023-04-03T16:22:26;14.20;72.80
30825;DHT22;17550;45.486;12.222;2023-04-03T16:24:53;14.10;73.50
30825;DHT22;17550;45.486;12.222;2023-04-03T16:27:19;14.00;73.30
30825;DHT22;17550;45.486;12.222;2023-04-03T16:29:45;13.90;74.40
30825;DHT22;17550;45.486;12.222;2023-04-03T16:32:12;13.90;74.90
30825;DHT22;17550;45.486;12.222;2023-04-03T16:34:38;13.80;75.50
30825;DHT22;17550;45.486;12.222;2023-04-03T16:37:06;13.80;76.20
30825;DHT22;17550;45.486;12.222;2023-04-03T16:39:34;13.80;75.60
30825;DHT22;17550;45.486;12.222;2023-04-03T16:42:00;13.70;75.70
30825;DHT22;17550;45.486;12.222;2023-04-03T16:44:26;13.60;74.40
30825;DHT22;17550;45.486;12.222;2023-04-03T16:46:52;13.50;74.20
30825;DHT22;17550;45.486;12.222;2023-04-03T16:49:17;13.50;75.10
30825;DHT22;17550;45.486;12.222;2023-04-03T16:51:43;13.50;75.70
30825;DHT22;17550;45.486;12.222;2023-04-03T16:54:09;13.40;77.10
30825;DHT22;17550;45.486;12.222;2023-04-03T16:56:37;13.40;76.60
30825;DHT22;17550;45.486;12.222;2023-04-03T16:59:02;13.40;76.80
30825;DHT22;17550;45.486;12.222;2023-04-03T17:01:31;13.30;76.10
30825;DHT22;17550;45.486;12.222;2023-04-03T17:03:56;13.30;76.90
30825;DHT22;17550;45.486;12.222;2023-04-03T17:06:22;13.20;76.80
30825;DHT22;17550;45.486;12.222;2023-04-03T17:08:50;13.20;77.50